Time;durP1;ratioP1;P1;durP2;ratioP2;P2;SDS_P1;SDS_P2;PMS_P1;PMS_P2;Temp;Humidity;BMP_temperature;BMP_pressure;BME280_temperature;BME280_humidity;BME280_pressure;Samples;Min_cycle;Max_cycle;Signal;HPM_P1;HPM_P2
2021/01/26 00:00:48;;;;;;;3.60;1.30;;;1.40;84.50;;;;;;6190347;23;20008;-89
2021/01/26 00:03:14;;;;;;;1.90;0.87;;;1.40;84.60;;;;;;6191561;23;20032;-92
2021/01/26 00:05:41;;;;;;;6.53;2.00;;;1.40;84.60;;;;;;6190732;23;20007;-90
2021/01/26 00:08:07;;;;;;;2.90;2.10;;;1.30;84.60;;;;;;6191028;23;20379;-90
2021/01/26 00:10:34;;;;;;;1.67;1.37;;;1.30;84.60;;;;;;6192568;23;20387;-90
2021/01/26 00:13:01;;;;;;;5.73;2.77;;;1.30;84.50;;;;;;6191720;23;20008;-89
2021/01/26 00:15:27;;;;;;;9.67;2.07;;;1.30;84.60;;;;;;6165459;23;20001;-90
2021/01/26 00:17:55;;;;;;;4.70;2.17;;;1.20;84.60;;;;;;6216847;23;20008;-90
2021/01/26 00:20:21;;;;;;;4.43;2.53;;;1.30;84.70;;;;;;6191084;23;20000;-89
2021/01/26 00:22:47;;;;;;;1.87;0.77;;;1.30;84.70;;;;;;6192352;23;20003;-90
2021/01/26 00:25:17;;;;;;;2.97;1.53;;;1.20;84.70;;;;;;6217861;23;20265;-91
2021/01/26 00:27:43;;;;;;;1.50;1.07;;;1.20;85.50;;;;;;6216620;23;20233;-89
2021/01/26 00:30:15;;;;;;;2.73;1.37;;;1.20;84.80;;;;;;6190575;22;20005;-90
2021/01/26 00:32:42;;;;;;;2.63;1.67;;;1.20;84.80;;;;;;6217549;23;20008;-90
2021/01/26 00:35:09;;;;;;;3.90;2.37;;;1.10;84.90;;;;;;6191700;23;20004;-90
2021/01/26 00:37:36;;;;;;;3.17;1.77;;;1.10;84.90;;;;;;6190129;23;20004;-89
2021/01/26 00:40:03;;;;;;;2.60;1.20;;;1.00;84.90;;;;;;6191128;23;20057;-89
2021/01/26 00:42:30;;;;;;;1.53;1.43;;;1.10;84.90;;;;;;6216103;23;20004;-90
2021/01/26 00:44:56;;;;;;;9.80;3.43;;;1.00;84.90;;;;;;6192801;23;20009;-89
2021/01/26 00:47:23;;;;;;;3.00;1.10;;;0.90;85.00;;;;;;6189397;23;20012;-90
2021/01/26 00:49:49;;;;;;;5.17;1.53;;;0.90;85.10;;;;;;6190294;23;20004;-90
2021/01/26 00:52:18;;;;;;;5.40;2.57;;;0.90;85.00;;;;;;6166510;23;20029;-89
2021/01/26 00:54:44;;;;;;;4.43;2.17;;;0.90;85.10;;;;;;6190048;23;20380;-89
2021/01/26 00:57:10;;;;;;;4.63;1.03;;;0.90;85.00;;;;;;6216102;23;20400;-89
2021/01/26 00:59:38;;;;;;;7.43;3.53;;;0.90;85.00;;;;;;6192916;23;19996;-90
2021/01/26 01:02:05;;;;;;;3.30;1.73;;;0.80;85.00;;;;;;6191308;23;20241;-90
2021/01/26 01:04:32;;;;;;;7.00;1.53;;;0.80;85.10;;;;;;6192255;23;19993;-90
2021/01/26 01:06:58;;;;;;;1.20;0.87;;;0.80;85.10;;;;;;6190522;23;19997;-91
2021/01/26 01:09:24;;;;;;;3.40;1.13;;;0.80;85.00;;;;;;6190870;23;20000;-89
2021/01/26 01:11:51;;;;;;;5.03;1.33;;;0.80;85.00;;;;;;6189875;23;20008;-90
2021/01/26 01:14:17;;;;;;;3.10;1.50;;;0.80;85.80;;;;;;6165543;23;20000;-89
2021/01/26 01:16:45;;;;;;;3.17;1.03;;;0.80;85.70;;;;;;6189595;23;20016;-90
2021/01/26 01:19:12;;;;;;;3.27;2.13;;;0.80;85.60;;;;;;6190652;23;20000;-88
2021/01/26 01:21:38;;;;;;;3.20;0.97;;;0.80;84.80;;;;;;6191747;23;20016;-90
2021/01/26 01:24:05;;;;;;;8.43;1.73;;;0.90;84.80;;;;;;6215871;23;20007;-89
2021/01/26 01:26:31;;;;;;;2.90;2.00;;;0.80;84.80;;;;;;6211882;23;20048;-89
2021/01/26 01:28:57;;;;;;;4.23;1.90;;;0.80;85.00;;;;;;6215820;23;19992;-90
2021/01/26 01:31:24;;;;;;;1.70;0.97;;;0.80;85.00;;;;;;6188533;23;20005;-91
2021/01/26 01:33:50;;;;;;;3.17;0.93;;;0.80;85.00;;;;;;6216732;23;19996;-89
2021/01/26 01:36:18;;;;;;;1.80;0.77;;;0.70;84.90;;;;;;6164381;23;20004;-88
2021/01/26 01:38:44;;;;;;;2.00;1.10;;;0.80;84.90;;;;;;6190015;23;20257;-90
2021/01/26 01:41:10;;;;;;;2.57;0.73;;;0.70;84.90;;;;;;6189466;23;20373;-89
2021/01/26 01:43:37;;;;;;;0.63;0.63;;;0.70;84.90;;;;;;6189610;23;20035;-88
2021/01/26 01:46:06;;;;;;;1.77;1.43;;;0.70;85.00;;;;;;6187807;23;20024;-89
2021/01/26 01:48:33;;;;;;;3.57;1.77;;;0.70;85.00;;;;;;6191196;23;20002;-89
2021/01/26 01:51:14;;;;;;;3.60;1.57;;;0.70;85.00;;;;;;6190540;23;20000;-89
2021/01/26 01:53:58;;;;;;;2.35;1.65;;;0.70;85.00;;;;;;6189198;23;20027;-89
2021/01/26 01:56:44;;;;;;;1.47;1.00;;;0.60;84.90;;;;;;6190017;23;20008;-90
2021/01/26 01:59:15;;;;;;;2.20;1.00;;;0.60;84.90;;;;;;6189408;23;20009;-89
2021/01/26 02:01:42;;;;;;;3.27;1.33;;;0.60;85.00;;;;;;6188656;23;20023;-90
2021/01/26 02:04:11;;;;;;;9.10;1.60;;;0.50;84.90;;;;;;6190503;23;20384;-90
2021/01/26 02:06:38;;;;;;;2.53;1.00;;;0.50;85.10;;;;;;6164466;23;20012;-90
2021/01/26 02:09:09;;;;;;;5.00;1.13;;;0.50;85.00;;;;;;6215251;23;20012;-88
2021/01/26 02:11:36;;;;;;;1.10;0.73;;;0.60;85.00;;;;;;6189051;23;20004;-90
2021/01/26 02:14:03;;;;;;;2.93;1.47;;;0.50;84.90;;;;;;6189273;23;20001;-89
2021/01/26 02:16:48;;;;;;;3.00;0.77;;;0.50;84.90;;;;;;6163807;23;20008;-89
2021/01/26 02:19:45;;;;;;;0.67;0.57;;;0.50;85.00;;;;;;6217245;23;20012;-90
2021/01/26 02:22:39;;;;;;;1.73;0.80;;;0.40;85.10;;;;;;6188672;23;20009;-90
2021/01/26 02:25:18;;;;;;;4.00;1.23;;;0.40;85.20;;;;;;6216734;23;19993;-90
2021/01/26 02:28:22;;;;;;;8.30;1.83;;;0.40;85.10;;;;;;6215365;23;19997;-90
2021/01/26 02:31:04;;;;;;;1.23;0.60;;;0.40;85.00;;;;;;6188470;23;20009;-88
2021/01/26 02:34:05;;;;;;;1.30;1.00;;;0.40;85.10;;;;;;6188760;23;20184;-89
2021/01/26 02:37:03;;;;;;;6.22;1.92;;;0.30;85.10;;;;;;6189422;23;20016;-90
2021/01/26 02:39:54;;;;;;;3.17;1.20;;;0.30;85.30;;;;;;6214353;23;20264;-90
2021/01/26 02:42:35;;;;;;;1.08;0.90;;;0.30;85.30;;;;;;6216364;23;20475;-90
2021/01/26 02:45:33;;;;;;;1.67;0.83;;;0.20;85.30;;;;;;6240463;23;20039;-89
2021/01/26 02:48:06;;;;;;;2.00;1.20;;;0.30;85.30;;;;;;6194610;23;20015;-88
2021/01/26 02:50:57;;;;;;;3.60;1.70;;;0.30;85.10;;;;;;6220860;23;20015;-90
2021/01/26 02:53:42;;;;;;;2.00;1.20;;;0.30;85.00;;;;;;6198274;23;19997;-89
2021/01/26 02:56:20;;;;;;;1.97;1.30;;;0.30;84.90;;;;;;6219118;23;20015;-90
2021/01/26 02:59:07;;;;;;;1.83;1.30;;;0.30;84.90;;;;;;6194051;23;20000;-89
2021/01/26 03:02:18;;;;;;;1.10;0.67;;;0.20;85.00;;;;;;6244524;22;20012;-89
2021/01/26 03:05:20;;;;;;;3.33;1.65;;;0.20;85.00;;;;;;6173765;23;20258;-89
2021/01/26 03:08:12;;;;;;;2.67;1.70;;;0.20;85.00;;;;;;6220096;23;19996;-89
2021/01/26 03:10:42;;;;;;;1.07;0.97;;;0.10;85.00;;;;;;6189516;23;20000;-88
2021/01/26 03:13:10;;;;;;;2.97;1.00;;;0.10;85.20;;;;;;6192728;23;20380;-88
2021/01/26 03:15:47;;;;;;;13.43;1.47;;;0.10;85.20;;;;;;6192437;23;20012;-90
2021/01/26 03:18:16;;;;;;;3.90;1.57;;;0.10;85.30;;;;;;6194369;23;20256;-89
2021/01/26 03:21:01;;;;;;;4.03;1.63;;;0.00;85.30;;;;;;6192437;23;20280;-88
2021/01/26 03:23:49;;;;;;;3.20;1.27;;;0.10;85.40;;;;;;6191744;23;20008;-89
2021/01/26 03:26:18;;;;;;;3.87;1.90;;;0.10;85.20;;;;;;6194728;23;19996;-89
2021/01/26 03:28:44;;;;;;;1.47;0.73;;;0.10;85.00;;;;;;6195669;23;20272;-89
2021/01/26 03:31:15;;;;;;;4.33;1.80;;;0.10;85.10;;;;;;6192077;23;20027;-89
2021/01/26 03:33:44;;;;;;;1.53;0.90;;;0.00;85.10;;;;;;6194634;23;20007;-89
2021/01/26 03:36:11;;;;;;;11.07;1.73;;;0.00;85.20;;;;;;6193761;23;20246;-90
2021/01/26 03:38:37;;;;;;;2.47;1.47;;;0.00;85.10;;;;;;6193683;23;20000;-89
2021/01/26 03:41:05;;;;;;;2.63;1.47;;;0.00;85.10;;;;;;6189508;23;20417;-89
2021/01/26 03:43:31;;;;;;;2.40;1.47;;;0.00;85.10;;;;;;6186856;23;20016;-88
2021/01/26 03:46:01;;;;;;;1.23;1.00;;;0.00;85.20;;;;;;6163870;23;20009;-89
2021/01/26 03:48:39;;;;;;;2.87;1.33;;;0.00;85.20;;;;;;6188556;23;20032;-89
2021/01/26 03:51:06;;;;;;;4.73;1.70;;;0.00;85.10;;;;;;6189865;23;19997;-88
2021/01/26 03:53:51;;;;;;;1.97;1.10;;;0.00;85.00;;;;;;6189475;23;20009;-89
2021/01/26 03:56:36;;;;;;;7.73;1.73;;;-0.10;85.10;;;;;;6189943;23;20004;-89
2021/01/26 03:59:23;;;;;;;2.67;0.93;;;-0.10;85.20;;;;;;6218951;23;20005;-88
2021/01/26 04:02:08;;;;;;;3.13;1.77;;;0.00;85.10;;;;;;6169024;23;20017;-89
2021/01/26 04:04:37;;;;;;;2.03;1.40;;;0.00;85.10;;;;;;6217596;23;20000;-89
2021/01/26 04:07:06;;;;;;;1.80;0.97;;;-0.10;85.00;;;;;;6190824;23;19996;-89
2021/01/26 04:09:37;;;;;;;0.60;0.33;;;-0.10;85.00;;;;;;6166561;23;20003;-89
2021/01/26 04:12:13;;;;;;;1.98;1.17;;;-0.10;85.10;;;;;;6141377;23;19997;-88
2021/01/26 04:14:47;;;;;;;3.13;1.47;;;-0.10;85.20;;;;;;6141846;23;19997;-88
2021/01/26 04:17:20;;;;;;;2.00;1.03;;;-0.10;85.20;;;;;;6167657;23;20004;-89
2021/01/26 04:20:08;;;;;;;1.90;0.97;;;0.00;84.90;;;;;;6141373;23;19997;-90
2021/01/26 04:22:34;;;;;;;1.53;0.93;;;0.00;84.70;;;;;;6168749;23;20015;-88
2021/01/26 04:25:01;;;;;;;2.30;1.27;;;0.10;84.50;;;;;;6166304;23;20004;-89
2021/01/26 04:27:27;;;;;;;3.27;2.47;;;0.10;84.30;;;;;;6190017;23;19997;-89
2021/01/26 04:29:54;;;;;;;0.87;0.37;;;0.20;84.30;;;;;;6142339;23;20007;-89
2021/01/26 04:32:21;;;;;;;2.30;1.03;;;0.20;84.10;;;;;;6140709;23;20021;-88
2021/01/26 04:34:48;;;;;;;5.20;2.10;;;0.20;84.20;;;;;;6166597;23;20381;-89
2021/01/26 04:37:14;;;;;;;1.13;0.50;;;0.20;84.10;;;;;;6190812;23;20001;-89
2021/01/26 04:39:41;;;;;;;16.03;1.60;;;0.30;84.00;;;;;;6165674;23;20012;-89
2021/01/26 04:42:14;;;;;;;0.43;0.40;;;0.30;83.80;;;;;;6165680;23;20016;-89
2021/01/26 04:45:01;;;;;;;0.83;0.40;;;0.30;83.70;;;;;;6212114;23;20034;-89
2021/01/26 04:47:46;;;;;;;1.50;0.40;;;0.20;83.70;;;;;;6194826;23;20279;-88
2021/01/26 04:50:40;;;;;;;1.33;0.40;;;0.20;83.90;;;;;;6194797;23;20000;-88
2021/01/26 04:53:33;;;;;;;1.63;1.00;;;0.10;83.90;;;;;;6222095;23;20000;-90
2021/01/26 04:56:21;;;;;;;1.23;0.73;;;0.10;84.00;;;;;;6226726;23;20271;-89
2021/01/26 04:59:05;;;;;;;1.23;0.30;;;0.10;83.90;;;;;;6226190;23;20000;-89
2021/01/26 05:01:47;;;;;;;0.33;0.20;;;0.10;83.70;;;;;;6219884;22;20019;-89
2021/01/26 05:04:20;;;;;;;1.40;0.60;;;0.10;83.60;;;;;;6220405;23;20498;-89
2021/01/26 05:06:51;;;;;;;2.03;0.20;;;0.20;83.60;;;;;;6198087;23;20005;-90
2021/01/26 05:09:23;;;;;;;2.13;1.13;;;0.10;83.50;;;;;;6197281;23;19992;-88
2021/01/26 05:11:50;;;;;;;1.57;1.47;;;0.10;83.50;;;;;;6195470;23;20003;-89
2021/01/26 05:14:26;;;;;;;0.90;0.67;;;0.20;83.50;;;;;;6195381;23;20004;-88
2021/01/26 05:17:10;;;;;;;0.27;0.23;;;0.30;83.40;;;;;;6194663;23;20012;-90
2021/01/26 05:19:52;;;;;;;1.33;0.50;;;0.30;83.30;;;;;;6198528;23;20150;-91
2021/01/26 05:22:59;;;;;;;8.50;1.17;;;0.40;83.10;;;;;;6197330;23;20000;-87
2021/01/26 05:25:26;;;;;;;0.30;0.30;;;0.50;83.10;;;;;;6177040;23;19996;-90
2021/01/26 05:27:52;;;;;;;0.33;0.23;;;0.50;82.90;;;;;;6172465;23;19996;-91
2021/01/26 05:30:31;;;;;;;1.17;0.67;;;0.50;82.90;;;;;;6226167;22;20241;-89
2021/01/26 05:33:08;;;;;;;1.57;0.77;;;0.50;82.90;;;;;;6204412;23;20004;-89
2021/01/26 05:35:36;;;;;;;2.43;1.20;;;0.50;82.90;;;;;;6205702;23;20004;-91
2021/01/26 05:38:02;;;;;;;1.53;0.77;;;0.50;83.00;;;;;;6200894;23;20004;-90
2021/01/26 05:40:34;;;;;;;0.67;0.40;;;0.50;83.00;;;;;;6200058;23;20414;-90
2021/01/26 05:43:02;;;;;;;2.30;0.93;;;0.60;83.80;;;;;;6176091;23;20015;-89
2021/01/26 05:45:35;;;;;;;1.00;0.43;;;0.50;83.00;;;;;;6201326;22;20014;-89
2021/01/26 05:48:13;;;;;;;2.40;0.63;;;0.50;83.90;;;;;;6225970;23;20000;-90
2021/01/26 05:50:40;;;;;;;1.90;0.63;;;0.50;83.30;;;;;;6199453;23;19996;-90
2021/01/26 05:53:30;;;;;;;1.00;0.57;;;0.50;83.50;;;;;;6195886;23;20011;-90
2021/01/26 05:56:11;;;;;;;0.97;0.63;;;0.40;83.70;;;;;;6204500;23;20000;-89
2021/01/26 05:58:39;;;;;;;0.05;0.03;;;0.30;83.80;;;;;;6199209;23;20406;-89
2021/01/26 06:01:11;;;;;;;0.53;0.53;;;0.30;83.80;;;;;;6196801;23;20292;-90
2021/01/26 06:03:37;;;;;;;0.27;0.20;;;0.40;83.90;;;;;;6199625;23;20004;-91
2021/01/26 06:06:06;;;;;;;1.90;0.83;;;0.40;83.90;;;;;;6198736;23;20156;-92
2021/01/26 06:08:47;;;;;;;0.93;0.63;;;0.40;83.90;;;;;;6217569;23;20378;-92
2021/01/26 06:11:14;;;;;;;;;;;0.40;83.90;;;;;;6198071;23;19996;-94
2021/01/26 06:13:40;;;;;;;1.23;0.63;;;0.40;83.70;;;;;;6217757;23;20198;-91
2021/01/26 06:16:12;;;;;;;0.90;0.70;;;0.40;83.60;;;;;;6195291;23;20136;-91
2021/01/26 06:18:39;;;;;;;0.50;0.30;;;0.40;83.50;;;;;;6198354;23;20004;-92
2021/01/26 06:21:11;;;;;;;3.20;1.17;;;0.40;83.50;;;;;;6198176;23;20003;-91
2021/01/26 06:23:40;;;;;;;0.30;0.30;;;0.40;83.70;;;;;;6195615;23;20279;-93
2021/01/26 06:26:08;;;;;;;2.20;0.93;;;0.30;83.80;;;;;;6195876;23;20000;-93
2021/01/26 06:28:53;;;;;;;3.10;1.53;;;0.30;84.00;;;;;;6195743;23;19996;-90
2021/01/26 06:31:34;;;;;;;0.77;0.33;;;0.30;84.00;;;;;;6247115;22;20011;-91
2021/01/26 06:34:20;;;;;;;1.67;0.63;;;0.40;84.00;;;;;;6197679;23;20267;-91
2021/01/26 06:37:01;;;;;;;1.33;0.80;;;0.30;83.80;;;;;;6220991;23;20004;-91
2021/01/26 06:40:00;;;;;;;1.67;0.77;;;0.30;83.80;;;;;;6219953;23;20004;-92
2021/01/26 06:42:35;;;;;;;4.37;0.57;;;0.30;83.70;;;;;;6215096;23;20004;-92
2021/01/26 06:45:14;;;;;;;4.23;1.27;;;0.20;83.90;;;;;;6189440;23;20016;-91
2021/01/26 06:47:59;;;;;;;0.67;0.57;;;0.10;83.90;;;;;;6214691;23;20012;-91
2021/01/26 06:50:45;;;;;;;1.37;0.80;;;0.10;83.90;;;;;;6215045;23;19997;-91
2021/01/26 06:53:39;;;;;;;2.20;0.87;;;0.20;83.90;;;;;;6213341;23;20020;-91
2021/01/26 06:56:16;;;;;;;1.83;0.90;;;0.10;83.80;;;;;;6216077;23;20009;-92
2021/01/26 06:58:54;;;;;;;0.33;0.23;;;0.20;83.80;;;;;;6215979;23;20004;-93
2021/01/26 07:04:53;;;;;;;0.17;0.13;;;0.30;83.40;;;;;;6201988;23;20039;-91
2021/01/26 07:07:41;;;;;;;0.93;0.57;;;0.30;83.40;;;;;;6213741;23;20007;-93
2021/01/26 07:10:11;;;;;;;9.37;0.73;;;0.30;83.30;;;;;;6217042;23;20001;-92
2021/01/26 07:12:49;;;;;;;0.90;0.80;;;0.30;83.30;;;;;;6213377;23;20000;-92
2021/01/26 07:15:27;;;;;;;0.30;0.20;;;0.30;83.30;;;;;;6212785;22;20005;-92
2021/01/26 07:17:57;;;;;;;3.93;0.97;;;0.40;83.30;;;;;;6164955;23;20055;-92
2021/01/26 07:20:34;;;;;;;1.87;1.07;;;0.40;83.20;;;;;;6214424;23;20000;-92
2021/01/26 07:23:08;;;;;;;2.90;0.97;;;0.50;83.10;;;;;;6212984;23;20392;-90
2021/01/26 07:26:15;;;;;;;1.80;0.47;;;0.50;83.10;;;;;;6190468;23;19997;-91
2021/01/26 07:28:50;;;;;;;1.43;0.83;;;0.60;83.00;;;;;;6149654;23;19997;-92
2021/01/26 07:31:47;;;;;;;0.83;0.40;;;0.60;82.80;;;;;;6216431;22;20015;-92
2021/01/26 07:34:32;;;;;;;2.27;0.63;;;0.60;82.70;;;;;;6184467;23;19996;-92
2021/01/26 07:37:21;;;;;;;1.73;1.03;;;0.60;82.70;;;;;;6191701;23;20011;-93
2021/01/26 07:40:08;;;;;;;5.93;0.80;;;0.60;82.80;;;;;;6191165;23;20005;-92
2021/01/26 07:42:48;;;;;;;2.90;0.87;;;0.70;82.80;;;;;;6216952;23;20009;-91
2021/01/26 07:45:16;;;;;;;0.00;0.00;;;0.70;82.70;;;;;;6169012;23;20021;-93
2021/01/26 07:47:45;;;;;;;0.40;0.37;;;0.70;82.60;;;;;;6190325;23;20008;-92
2021/01/26 07:50:30;;;;;;;0.23;0.17;;;0.80;82.40;;;;;;6166968;23;20012;-91
2021/01/26 07:53:16;;;;;;;1.47;0.43;;;0.90;82.30;;;;;;6189386;23;20016;-93
2021/01/26 07:56:16;;;;;;;0.57;0.47;;;0.90;82.30;;;;;;6172021;23;20004;-93
2021/01/26 07:58:51;;;;;;;0.20;0.10;;;0.90;82.30;;;;;;6137235;23;20245;-93
2021/01/26 08:01:19;;;;;;;1.13;0.50;;;0.90;82.50;;;;;;6165686;23;20020;-92
2021/01/26 08:03:46;;;;;;;0.73;0.20;;;0.90;82.40;;;;;;6167217;23;20009;-93
2021/01/26 08:06:40;;;;;;;0.00;0.00;;;0.90;82.40;;;;;;6191524;23;20007;-90
2021/01/26 08:09:10;;;;;;;0.87;0.40;;;1.00;82.20;;;;;;6220378;23;19995;-92
2021/01/26 08:11:51;;;;;;;1.23;1.03;;;1.00;82.10;;;;;;6167561;23;19997;-94
2021/01/26 08:14:18;;;;;;;1.37;0.57;;;1.00;82.10;;;;;;6169632;23;20004;-91
2021/01/26 08:16:45;;;;;;;0.20;0.10;;;1.10;82.10;;;;;;6143142;23;20279;-93
2021/01/26 08:19:37;;;;;;;1.87;1.13;;;1.20;82.00;;;;;;6168602;23;20020;-93
2021/01/26 08:22:18;;;;;;;1.43;0.90;;;1.30;82.00;;;;;;6168034;23;20008;-93
2021/01/26 08:24:45;;;;;;;;;;;1.30;81.80;;;;;;6168146;23;20005;-91
2021/01/26 08:27:30;;;;;;;1.10;0.43;;;1.30;81.70;;;;;;6192815;23;19908;-92
2021/01/26 08:30:01;;;;;;;0.43;0.27;;;1.40;81.70;;;;;;6171633;23;19993;-93
2021/01/26 08:32:27;;;;;;;0.70;0.30;;;1.70;81.70;;;;;;6194050;23;20012;-92
2021/01/26 08:35:10;;;;;;;2.20;0.30;;;2.10;80.40;;;;;;6192077;23;20686;-94
2021/01/26 08:37:46;;;;;;;0.50;0.03;;;2.10;80.10;;;;;;6192909;23;20012;-93
2021/01/26 08:40:21;;;;;;;0.67;0.37;;;1.90;80.50;;;;;;6167747;23;19997;-91
2021/01/26 08:42:51;;;;;;;0.37;0.27;;;1.70;81.00;;;;;;6166877;23;20007;-91
2021/01/26 08:45:39;;;;;;;0.22;0.20;;;1.70;81.50;;;;;;6190017;22;20253;-93
2021/01/26 08:48:26;;;;;;;0.50;0.30;;;1.60;81.60;;;;;;6221401;23;19997;-92
2021/01/26 08:50:52;;;;;;;1.27;0.87;;;1.60;81.80;;;;;;6171344;23;20386;-93
2021/01/26 08:53:28;;;;;;;0.47;0.27;;;1.60;81.90;;;;;;6217211;23;20005;-94
2021/01/26 08:56:23;;;;;;;0.30;0.10;;;1.60;82.00;;;;;;6217298;23;20014;-93
2021/01/26 08:58:51;;;;;;;0.40;0.20;;;1.60;81.90;;;;;;6213300;23;20020;-93
2021/01/26 09:01:23;;;;;;;3.33;0.53;;;1.70;81.80;;;;;;6191757;23;20041;-92
2021/01/26 09:03:50;;;;;;;2.53;1.03;;;1.80;81.70;;;;;;6217830;23;20004;-93
2021/01/26 09:06:39;;;;;;;2.83;0.53;;;1.90;81.40;;;;;;6192422;23;20440;-93
2021/01/26 09:09:08;;;;;;;0.27;0.23;;;1.90;81.20;;;;;;6217942;23;19997;-94
2021/01/26 09:11:44;;;;;;;0.10;0.00;;;1.90;81.20;;;;;;6195353;23;20288;-93
2021/01/26 09:14:35;;;;;;;1.67;0.40;;;2.00;81.30;;;;;;6222113;23;20001;-93
2021/01/26 09:17:28;;;;;;;0.20;0.10;;;2.00;81.30;;;;;;6216414;23;20020;-94
2021/01/26 09:20:03;;;;;;;0.57;0.13;;;2.10;81.30;;;;;;6216626;23;20012;-94
2021/01/26 09:22:31;;;;;;;0.10;0.10;;;2.10;81.20;;;;;;6217489;23;20023;-94
2021/01/26 09:25:09;;;;;;;2.87;0.57;;;2.20;81.10;;;;;;6205948;23;20027;-93
2021/01/26 09:27:36;;;;;;;1.33;0.57;;;2.30;80.80;;;;;;6211763;23;19989;-91
2021/01/26 09:30:16;;;;;;;0.80;0.50;;;2.50;80.50;;;;;;6210193;22;19996;-91
2021/01/26 09:32:45;;;;;;;0.70;0.30;;;2.80;80.00;;;;;;6215719;23;20060;-93
2021/01/26 09:35:21;;;;;;;0.53;0.27;;;3.00;79.30;;;;;;6190552;23;20080;-92
2021/01/26 09:37:57;;;;;;;5.70;0.50;;;3.20;79.00;;;;;;6216949;23;20048;-93
2021/01/26 09:40:24;;;;;;;0.70;0.30;;;3.40;78.70;;;;;;6220379;23;20037;-93
2021/01/26 09:43:03;;;;;;;0.77;0.43;;;3.50;78.40;;;;;;6217627;23;20036;-94
2021/01/26 09:45:29;;;;;;;1.13;0.30;;;3.50;78.30;;;;;;6218226;23;20056;-94
2021/01/26 09:47:55;;;;;;;0.50;0.17;;;3.60;78.50;;;;;;6215463;23;20009;-93
2021/01/26 09:50:22;;;;;;;0.20;0.20;;;3.50;78.60;;;;;;6197974;23;20263;-93
2021/01/26 09:52:48;;;;;;;0.13;0.13;;;3.40;78.80;;;;;;6193837;23;20001;-93
2021/01/26 09:55:15;;;;;;;0.10;0.00;;;3.40;79.20;;;;;;6195486;23;20404;-91
2021/01/26 09:57:41;;;;;;;0.13;0.13;;;3.40;79.40;;;;;;6192543;23;19996;-89
2021/01/26 10:00:14;;;;;;;0.00;0.00;;;3.40;79.40;;;;;;6190969;22;19997;-92
2021/01/26 10:02:41;;;;;;;1.10;0.30;;;3.40;79.60;;;;;;6191533;23;20001;-95
2021/01/26 10:05:16;;;;;;;0.97;0.47;;;3.40;79.70;;;;;;6193073;23;20265;-93
2021/01/26 10:07:43;;;;;;;0.43;0.30;;;3.40;79.60;;;;;;6166238;23;19997;-94
2021/01/26 10:10:22;;;;;;;0.93;0.40;;;3.50;80.30;;;;;;6214852;23;20003;-94
2021/01/26 10:12:49;;;;;;;0.00;0.00;;;3.60;79.50;;;;;;6191584;23;20005;-94
2021/01/26 10:15:23;;;;;;;1.03;0.53;;;3.60;79.50;;;;;;6167501;22;20004;-93
2021/01/26 10:17:55;;;;;;;0.57;0.33;;;3.70;79.40;;;;;;6218983;23;20265;-93
2021/01/26 10:20:26;;;;;;;0.30;0.00;;;3.70;79.30;;;;;;6219731;23;20011;-94
2021/01/26 10:23:05;;;;;;;;;;;3.70;79.40;;;;;;6217613;23;20001;-93
2021/01/26 10:25:32;;;;;;;0.73;0.30;;;3.60;79.50;;;;;;6218209;23;19915;-93
2021/01/26 10:28:09;;;;;;;0.80;0.50;;;3.50;79.60;;;;;;6218977;23;19997;-93
2021/01/26 10:30:46;;;;;;;0.20;0.10;;;3.50;79.80;;;;;;6195861;23;20234;-93
2021/01/26 10:33:31;;;;;;;1.73;0.40;;;3.50;80.00;;;;;;6219551;23;20015;-94
2021/01/26 10:36:28;;;;;;;1.77;0.40;;;3.50;80.00;;;;;;6221827;23;20364;-93
2021/01/26 10:38:56;;;;;;;0.80;0.23;;;3.50;80.10;;;;;;6217672;23;20016;-92
2021/01/26 10:41:33;;;;;;;0.63;0.23;;;3.50;80.00;;;;;;6191487;23;19997;-94
2021/01/26 10:44:13;;;;;;;0.60;0.40;;;3.50;80.00;;;;;;6160213;23;20020;-93
2021/01/26 10:46:41;;;;;;;0.27;0.20;;;3.60;80.00;;;;;;6168628;23;20016;-93
2021/01/26 10:49:18;;;;;;;0.97;0.50;;;3.60;80.00;;;;;;6176109;23;20219;-94
2021/01/26 10:51:44;;;;;;;0.40;0.10;;;3.70;79.80;;;;;;6231199;23;19993;-93
2021/01/26 10:54:11;;;;;;;0.93;0.67;;;3.70;79.70;;;;;;6197117;23;20005;-93
2021/01/26 10:56:37;;;;;;;0.27;0.10;;;3.70;79.70;;;;;;6168498;23;20012;-94
2021/01/26 10:59:04;;;;;;;0.27;0.17;;;3.70;80.30;;;;;;6192105;23;20005;-91
2021/01/26 11:01:30;;;;;;;0.47;0.30;;;3.70;79.80;;;;;;6168580;23;20001;-91
2021/01/26 11:03:57;;;;;;;0.00;0.00;;;3.80;79.80;;;;;;6168339;23;20000;-90
2021/01/26 11:06:23;;;;;;;0.90;0.33;;;3.90;79.70;;;;;;6198954;23;20003;-91
2021/01/26 11:08:50;;;;;;;0.00;0.00;;;3.90;79.70;;;;;;6171494;23;20256;-91
2021/01/26 11:11:18;;;;;;;0.20;0.20;;;3.90;79.80;;;;;;6169102;23;20258;-91
2021/01/26 11:13:45;;;;;;;0.60;0.47;;;3.80;79.90;;;;;;6169640;23;19997;-94
2021/01/26 11:16:11;;;;;;;4.00;0.63;;;3.80;79.90;;;;;;6166194;23;20023;-92
2021/01/26 11:18:38;;;;;;;6.10;1.10;;;3.80;80.00;;;;;;6168346;23;20011;-93
2021/01/26 11:21:07;;;;;;;0.30;0.30;;;3.80;80.00;;;;;;6168581;23;19996;-91
2021/01/26 11:23:33;;;;;;;0.80;0.20;;;3.90;80.00;;;;;;6167537;23;20028;-91
2021/01/26 11:26:03;;;;;;;0.40;0.33;;;3.90;80.70;;;;;;6169852;23;20001;-93
2021/01/26 11:28:30;;;;;;;0.13;0.10;;;3.90;80.00;;;;;;6175187;23;20003;-93
2021/01/26 11:30:56;;;;;;;2.10;0.43;;;3.90;80.00;;;;;;6199603;23;20032;-92
2021/01/26 11:33:26;;;;;;;0.10;0.10;;;3.90;80.00;;;;;;6197105;23;20001;-93
2021/01/26 11:35:53;;;;;;;0.30;0.30;;;3.90;80.00;;;;;;6169361;23;19997;-92
2021/01/26 11:38:20;;;;;;;1.27;0.10;;;4.00;80.00;;;;;;6171356;23;20016;-92
2021/01/26 11:40:46;;;;;;;0.40;0.20;;;4.00;79.80;;;;;;6174397;23;19999;-92
2021/01/26 11:43:13;;;;;;;0.37;0.20;;;4.10;79.80;;;;;;6173566;23;20001;-91
2021/01/26 11:45:39;;;;;;;3.77;1.23;;;4.20;79.70;;;;;;6201161;23;20009;-92
2021/01/26 11:48:10;;;;;;;1.70;0.30;;;4.20;79.40;;;;;;6201976;23;20011;-90
2021/01/26 11:50:37;;;;;;;0.40;0.30;;;4.30;80.20;;;;;;6204092;23;19996;-93
2021/01/26 11:53:07;;;;;;;1.27;0.53;;;4.30;79.30;;;;;;6200975;23;20030;-91
2021/01/26 11:55:34;;;;;;;1.27;0.75;;;4.40;79.30;;;;;;6197777;23;20007;-91
2021/01/26 11:58:00;;;;;;;0.00;0.00;;;4.50;79.10;;;;;;6195852;23;20007;-92
2021/01/26 12:00:30;;;;;;;0.10;0.10;;;4.50;79.80;;;;;;6196036;22;21105;-92
2021/01/26 12:02:56;;;;;;;1.67;0.30;;;4.50;78.90;;;;;;6195500;23;20000;-92
2021/01/26 12:05:28;;;;;;;0.20;0.20;;;4.50;79.00;;;;;;6194960;23;20008;-92
2021/01/26 12:07:54;;;;;;;0.00;0.00;;;4.50;79.00;;;;;;6195467;23;19996;-92
2021/01/26 12:10:24;;;;;;;2.83;0.43;;;4.60;78.90;;;;;;6195870;23;20372;-93
2021/01/26 12:12:51;;;;;;;0.00;0.00;;;4.70;78.80;;;;;;6247056;23;20398;-90
2021/01/26 12:15:29;;;;;;;0.57;0.47;;;4.80;78.70;;;;;;6193637;22;20008;-93
2021/01/26 12:17:55;;;;;;;2.03;0.60;;;4.70;78.60;;;;;;6197895;23;20015;-94
2021/01/26 12:20:27;;;;;;;1.07;0.50;;;4.70;78.80;;;;;;6196822;23;20444;-92
2021/01/26 12:22:54;;;;;;;0.00;0.00;;;4.70;78.80;;;;;;6220599;23;20000;-92
2021/01/26 12:25:24;;;;;;;0.10;0.00;;;4.70;78.80;;;;;;6195496;23;20295;-93
2021/01/26 12:27:50;;;;;;;1.93;1.50;;;4.80;78.90;;;;;;6201425;23;20000;-91
2021/01/26 12:30:20;;;;;;;0.87;0.20;;;4.80;78.90;;;;;;6173675;23;20000;-91
2021/01/26 12:32:46;;;;;;;0.97;0.20;;;4.70;78.90;;;;;;6225105;23;19996;-92
2021/01/26 12:35:19;;;;;;;0.87;0.20;;;4.70;79.00;;;;;;6222442;23;20000;-91
2021/01/26 12:37:45;;;;;;;1.40;0.67;;;4.70;79.20;;;;;;6224170;23;20414;-92
2021/01/26 12:40:18;;;;;;;0.60;0.30;;;4.70;79.30;;;;;;6223326;23;20004;-91
2021/01/26 12:42:47;;;;;;;0.10;0.10;;;4.70;79.30;;;;;;6221544;23;20007;-93
2021/01/26 12:45:15;;;;;;;5.97;1.03;;;4.70;79.20;;;;;;6169837;22;20020;-92
2021/01/26 12:47:41;;;;;;;0.30;0.23;;;4.70;79.20;;;;;;6142461;23;19996;-92
2021/01/26 12:50:09;;;;;;;0.00;0.00;;;4.70;79.20;;;;;;6173872;23;20011;-92
2021/01/26 12:52:37;;;;;;;0.30;0.20;;;4.80;79.20;;;;;;6178751;23;19996;-94
2021/01/26 12:55:04;;;;;;;0.00;0.00;;;4.80;79.10;;;;;;6203084;23;20005;-94
2021/01/26 12:57:30;;;;;;;0.23;0.13;;;4.90;79.10;;;;;;6199213;23;20261;-94
2021/01/26 12:59:57;;;;;;;2.00;0.53;;;4.90;78.90;;;;;;6204817;23;19996;-93
2021/01/26 13:02:24;;;;;;;0.00;0.00;;;5.00;78.90;;;;;;6204751;23;20017;-90
2021/01/26 13:04:52;;;;;;;0.50;0.33;;;5.10;78.80;;;;;;6226529;23;20011;-92
2021/01/26 13:07:20;;;;;;;0.93;0.33;;;5.10;78.70;;;;;;6228620;23;19998;-92
2021/01/26 13:09:47;;;;;;;2.93;0.50;;;5.20;78.50;;;;;;6227400;23;19997;-94
2021/01/26 13:12:13;;;;;;;0.50;0.20;;;5.30;78.40;;;;;;6175274;23;19996;-92
2021/01/26 13:14:40;;;;;;;0.17;0.17;;;5.30;78.40;;;;;;6196813;23;20005;-95
2021/01/26 13:17:06;;;;;;;0.00;0.00;;;5.20;78.40;;;;;;6167721;23;20009;-94
2021/01/26 13:19:33;;;;;;;18.47;0.67;;;5.20;78.60;;;;;;6190576;23;20008;-93
2021/01/26 13:21:59;;;;;;;0.33;0.20;;;5.10;78.70;;;;;;6217777;23;20005;-92
2021/01/26 13:24:25;;;;;;;1.53;0.40;;;5.20;78.70;;;;;;6165611;23;20004;-94
2021/01/26 13:26:52;;;;;;;0.00;0.00;;;5.20;78.60;;;;;;6216332;23;20257;-92
2021/01/26 13:29:18;;;;;;;2.03;0.27;;;5.30;78.50;;;;;;6167317;23;20008;-92
2021/01/26 13:31:44;;;;;;;0.33;0.23;;;5.20;78.60;;;;;;6168156;23;20004;-92
2021/01/26 13:34:11;;;;;;;0.00;0.00;;;5.30;78.60;;;;;;6174259;23;20008;-92